createdAt,value
2019-04-10T04:42:57.841Z,-0.20
2019-04-10T04:45:27.838Z,-0.10
2019-04-10T04:47:57.630Z,-0.10
2019-04-10T04:50:27.186Z,-0.10
2019-04-10T04:52:56.658Z,0.10
2019-04-10T04:55:26.142Z,0.30
2019-04-10T04:57:55.636Z,0.50
2019-04-10T05:00:25.771Z,0.50
2019-04-10T05:02:55.832Z,0.60
2019-04-10T05:05:25.638Z,0.90
2019-04-10T05:08:00.070Z,1.00
2019-04-10T05:10:26.325Z,1.30
2019-04-10T05:12:56.197Z,1.40
2019-04-10T05:15:25.651Z,1.50
2019-04-10T05:17:55.607Z,1.70
2019-04-10T05:22:56.154Z,2.10
2019-04-10T05:25:25.702Z,2.20
2019-04-10T05:27:55.449Z,2.60
2019-04-10T05:30:25.124Z,2.90
2019-04-10T05:32:55.467Z,3.30
2019-04-10T05:35:25.724Z,3.40
2019-04-10T05:37:56.125Z,3.50
2019-04-10T05:40:25.972Z,3.60
2019-04-10T05:42:57.442Z,3.70
2019-04-10T05:45:27.638Z,4.00
2019-04-10T05:47:57.266Z,4.00
2019-04-10T05:55:26.602Z,4.90
2019-04-10T05:57:56.066Z,4.90
2019-04-10T06:00:25.571Z,5.10
2019-04-10T06:02:56.436Z,5.10
2019-04-10T06:07:57.166Z,5.70
2019-04-10T06:12:56.362Z,6.00
2019-04-10T06:20:26.115Z,6.10
2019-04-10T06:25:25.043Z,6.30
2019-04-10T06:27:54.716Z,6.40
2019-04-10T06:30:24.146Z,6.00
2019-04-10T06:37:54.725Z,6.80
2019-04-10T06:50:24.444Z,7.80
2019-04-10T07:00:25.010Z,8.30
2019-04-10T07:02:54.726Z,8.00
2019-04-10T07:10:29.901Z,8.60
2019-04-10T07:55:19.638Z,11.80
2019-04-10T07:57:50.700Z,11.70
2019-04-10T08:00:20.218Z,12.10
2019-04-10T08:07:48.567Z,11.50
2019-04-10T08:10:18.139Z,12.70
2019-04-10T08:12:53.059Z,12.60
2019-04-10T08:15:19.215Z,12.60
2019-04-10T08:17:50.822Z,13.00
2019-04-10T08:20:19.852Z,12.70
2019-04-10T08:27:48.110Z,12.30
2019-04-10T08:30:17.572Z,13.80
2019-04-10T08:32:56.351Z,13.80
2019-04-10T08:40:16.474Z,13.10
2019-04-10T08:42:46.638Z,13.50
2019-04-10T08:45:16.994Z,13.60
2019-04-10T08:47:46.395Z,13.50
2019-04-10T08:50:15.965Z,13.80
2019-04-10T08:52:46.525Z,13.70
2019-04-10T08:55:17.620Z,14.00
2019-04-10T08:57:47.461Z,14.60
2019-04-10T09:00:17.047Z,14.20
2019-04-10T09:02:46.805Z,14.40
2019-04-10T09:05:17.423Z,14.40
2019-04-10T09:07:46.961Z,14.10
2019-04-10T09:12:47.159Z,14.40
2019-04-10T09:15:18.048Z,13.60
2019-04-10T09:17:47.696Z,13.80
2019-04-10T09:20:18.414Z,15.40
2019-04-10T09:23:10.410Z,14.70
2019-04-10T09:25:19.714Z,14.80
2019-04-10T09:27:49.728Z,14.70
2019-04-10T09:30:20.476Z,14.70
2019-04-10T09:32:50.723Z,15.90
2019-04-10T09:37:50.453Z,15.20
2019-04-10T09:42:50.283Z,14.60
2019-04-10T09:45:20.005Z,14.40
2019-04-10T09:47:50.218Z,14.50
2019-04-10T09:52:50.278Z,14.30
2019-04-10T09:55:20.325Z,15.40
2019-04-10T09:57:49.851Z,14.80
2019-04-10T10:02:50.733Z,14.60
2019-04-10T10:07:50.671Z,13.80
2019-04-10T10:10:20.637Z,15.40
2019-04-10T10:15:20.969Z,16.00
2019-04-10T10:17:50.988Z,16.10
2019-04-10T10:20:21.809Z,16.30
2019-04-10T10:25:21.671Z,14.70
2019-04-10T10:27:51.060Z,15.80
2019-04-10T10:30:20.992Z,15.70
2019-04-10T10:32:51.052Z,16.20
2019-04-10T10:35:20.708Z,15.90
2019-04-10T10:40:20.432Z,16.20
2019-04-10T10:42:50.022Z,15.90
2019-04-10T10:45:20.790Z,16.40
2019-04-10T10:47:50.679Z,16.30
2019-04-10T10:50:22.097Z,16.70
2019-04-10T10:52:52.154Z,16.20
2019-04-10T10:57:51.413Z,15.20
2019-04-10T11:00:23.105Z,16.50
2019-04-10T11:02:53.927Z,17.10
2019-04-10T11:05:23.776Z,16.40
2019-04-10T11:07:53.251Z,17.10
2019-04-10T11:20:24.166Z,16.40
2019-04-10T11:22:53.791Z,17.10
2019-04-10T11:25:23.780Z,17.20
2019-04-10T11:27:53.948Z,16.90
2019-04-10T11:30:24.879Z,17.10
2019-04-10T11:35:24.542Z,16.40
2019-04-10T11:40:26.756Z,16.30
2019-04-10T11:47:58.950Z,15.70
2019-04-10T11:50:30.044Z,17.00
2019-04-10T11:53:02.096Z,15.80
2019-04-10T11:55:42.470Z,17.30
2019-04-10T11:58:03.172Z,16.80
2019-04-10T12:13:16.992Z,16.40
2019-04-10T12:18:14.856Z,15.30
2019-04-10T12:23:14.773Z,16.00
2019-04-10T12:25:45.043Z,17.00
2019-04-10T12:30:43.641Z,17.10
2019-04-10T12:33:13.615Z,17.60
2019-04-10T12:35:43.347Z,17.30
2019-04-10T12:38:13.404Z,18.30
2019-04-10T12:43:12.687Z,17.90
2019-04-10T12:53:09.445Z,17.60
2019-04-10T12:55:39.426Z,18.20
2019-04-10T12:58:13.602Z,19.70
2019-04-10T13:05:41.501Z,17.30
2019-04-10T13:08:20.467Z,18.30
2019-04-10T13:10:43.820Z,17.80
2019-04-10T13:13:13.774Z,19.10
2019-04-10T13:18:14.307Z,16.50
2019-04-10T13:23:15.246Z,17.30
2019-04-10T13:53:13.689Z,18.30
2019-04-10T14:00:43.375Z,17.90
2019-04-10T14:20:42.261Z,17.10
2019-04-10T14:28:53.451Z,16.40
2019-04-10T14:31:26.709Z,15.80
2019-04-10T14:33:58.990Z,15.90
2019-04-10T14:36:29.707Z,15.20
2019-04-10T14:41:31.770Z,15.20
2019-04-10T14:44:01.998Z,15.50
2019-04-10T14:46:31.979Z,14.90
2019-04-10T14:49:02.735Z,15.70
2019-04-10T14:51:32.922Z,14.80
2019-04-10T14:54:03.764Z,14.50
2019-04-10T14:56:34.466Z,14.60
2019-04-10T15:01:34.410Z,15.30
2019-04-10T15:04:04.651Z,14.70
2019-04-10T15:06:34.547Z,14.10
2019-04-10T15:09:06.215Z,14.60
2019-04-10T15:11:35.780Z,13.80
2019-04-10T15:14:05.596Z,13.50
2019-04-10T15:16:35.234Z,13.60
2019-04-10T15:19:04.730Z,12.00
2019-04-10T15:21:34.746Z,10.30
2019-04-10T15:24:04.281Z,10.00
2019-04-10T15:26:33.959Z,9.90
2019-04-10T15:29:03.757Z,9.10
2019-04-10T15:31:33.354Z,8.90
2019-04-10T15:34:03.661Z,8.70
2019-04-10T15:36:34.589Z,9.00
2019-04-10T15:39:06.558Z,9.10
2019-04-10T15:41:36.098Z,8.60
2019-04-10T15:44:05.840Z,8.10
2019-04-10T15:46:35.428Z,8.10
2019-04-10T15:49:05.008Z,8.10
2019-04-10T15:51:34.646Z,8.30
2019-04-10T15:54:05.502Z,8.10
2019-04-10T15:56:36.145Z,8.00
2019-04-10T15:59:06.043Z,8.10
2019-04-10T16:01:35.788Z,7.90
2019-04-10T16:04:05.779Z,7.90
2019-04-10T16:06:35.537Z,7.70
2019-04-10T16:09:07.320Z,7.70
2019-04-10T16:11:45.802Z,7.40
2019-04-10T16:14:20.906Z,7.40
2019-04-10T16:17:04.686Z,7.10
2019-04-10T16:19:42.951Z,7.10
2019-04-10T16:22:36.640Z,7.00
2019-04-10T16:25:34.029Z,6.90
2019-04-10T16:28:06.153Z,7.00
2019-04-10T16:30:37.066Z,6.80
2019-04-10T16:33:07.093Z,6.70
2019-04-10T16:35:38.331Z,6.70
2019-04-10T16:38:08.547Z,6.50
2019-04-10T16:40:38.465Z,6.40
2019-04-10T16:43:08.112Z,6.30
2019-04-10T16:45:38.495Z,6.40
2019-04-10T16:48:08.614Z,6.20
2019-04-10T16:50:38.431Z,6.20
2019-04-10T16:53:09.645Z,6.10
2019-04-10T16:55:39.486Z,6.00
2019-04-10T16:58:09.607Z,5.90
2019-04-10T17:00:39.724Z,5.90
2019-04-10T17:03:09.481Z,5.80
2019-04-10T17:05:39.773Z,5.70
2019-04-10T17:08:09.816Z,5.70
2019-04-10T17:10:40.765Z,5.60
2019-04-10T17:13:10.823Z,5.60
2019-04-10T17:15:40.606Z,5.50
2019-04-10T17:18:10.804Z,5.40
2019-04-10T17:20:42.705Z,5.30
2019-04-10T17:23:12.394Z,5.30
2019-04-10T17:25:42.392Z,5.30
2019-04-10T17:28:12.337Z,5.40
2019-04-10T17:30:42.386Z,5.30
2019-04-10T17:33:13.169Z,5.20
2019-04-10T17:35:43.464Z,5.20
2019-04-10T17:38:14.245Z,5.30
2019-04-10T17:40:48.801Z,5.10
2019-04-10T17:43:15.350Z,5.30
2019-04-10T17:45:44.934Z,5.30
2019-04-10T17:48:15.648Z,5.20
2019-04-10T17:50:45.691Z,5.30
2019-04-10T17:53:17.122Z,5.20
2019-04-10T17:55:47.478Z,5.20
2019-04-10T17:58:21.168Z,5.20
2019-04-10T18:00:53.565Z,5.20
2019-04-10T18:03:23.828Z,5.20
2019-04-10T18:05:53.478Z,5.10
2019-04-10T18:08:26.370Z,5.20
2019-04-10T18:10:56.825Z,5.20
2019-04-10T18:13:26.692Z,5.10
2019-04-10T18:15:57.070Z,5.10
2019-04-10T18:18:27.496Z,5.10
2019-04-10T18:20:58.173Z,5.10
2019-04-10T18:23:28.271Z,5.20
2019-04-10T18:25:58.411Z,5.10
2019-04-10T18:28:30.609Z,5.20
2019-04-10T18:31:00.712Z,5.10
2019-04-10T18:33:30.882Z,5.20
2019-04-10T18:36:01.114Z,5.00
2019-04-10T18:38:30.640Z,5.00
2019-04-10T18:41:03.753Z,4.90
2019-04-10T18:43:31.937Z,5.00
2019-04-10T18:46:08.675Z,5.10
2019-04-10T18:48:34.559Z,5.00
2019-04-10T18:51:06.639Z,5.00
2019-04-10T18:53:35.418Z,5.00
2019-04-10T18:56:05.186Z,4.90
2019-04-10T18:58:40.410Z,4.80
2019-04-10T19:01:28.756Z,4.60
2019-04-10T19:04:16.237Z,4.50
2019-04-10T19:06:58.757Z,4.40
2019-04-10T19:09:30.836Z,4.30
2019-04-10T19:12:00.673Z,4.30
2019-04-10T19:14:30.708Z,4.20
2019-04-10T19:17:00.575Z,4.10
2019-04-10T19:19:30.817Z,3.90
2019-04-10T19:22:00.413Z,4.00
2019-04-10T19:24:30.539Z,3.90
2019-04-10T19:27:00.337Z,3.80
2019-04-10T19:29:29.935Z,3.80
2019-04-10T19:32:02.175Z,3.70
2019-04-10T19:34:33.809Z,3.60
2019-04-10T19:37:04.106Z,3.50
2019-04-10T19:39:34.239Z,3.50
2019-04-10T19:42:04.971Z,3.50
2019-04-10T19:44:35.225Z,3.40
2019-04-10T19:47:06.099Z,3.40
2019-04-10T19:49:37.003Z,3.40
2019-04-10T19:52:08.510Z,3.30
2019-04-10T19:54:38.775Z,3.30
2019-04-10T19:57:08.970Z,3.40
2019-04-10T19:59:39.854Z,3.40
2019-04-10T20:02:10.790Z,3.30
2019-04-10T20:04:40.973Z,3.30
2019-04-10T20:07:11.206Z,3.40
2019-04-10T20:09:41.044Z,3.50
2019-04-10T20:12:11.124Z,3.60
2019-04-10T20:14:40.938Z,3.70
2019-04-10T20:17:11.511Z,3.80
2019-04-10T20:19:42.539Z,3.90
2019-04-10T20:22:12.711Z,3.90
2019-04-10T20:24:43.127Z,4.00
2019-04-10T20:27:14.061Z,4.00
2019-04-10T20:29:45.238Z,4.10
2019-04-10T20:32:15.854Z,4.10
2019-04-10T20:34:45.758Z,4.10
2019-04-10T20:37:15.513Z,4.20
2019-04-10T20:39:45.478Z,4.20
2019-04-10T20:42:16.138Z,4.20
2019-04-10T20:44:47.072Z,4.20
2019-04-10T20:47:17.228Z,4.20
2019-04-10T20:49:47.061Z,4.20
2019-04-10T20:52:17.930Z,4.20
2019-04-10T20:54:48.879Z,4.20
2019-04-10T20:57:19.411Z,4.20
2019-04-10T20:59:49.646Z,4.20
2019-04-10T21:02:20.242Z,4.20
2019-04-10T21:04:56.630Z,4.20
2019-04-10T21:07:21.991Z,4.10
2019-04-10T21:09:52.386Z,4.00
2019-04-10T21:12:22.288Z,4.00
2019-04-10T21:14:52.554Z,3.90
2019-04-10T21:17:22.683Z,3.90
2019-04-10T21:22:22.403Z,3.80
2019-04-10T21:24:52.394Z,3.70
2019-04-10T21:27:22.816Z,3.60
2019-04-10T21:30:17.845Z,3.50
2019-04-10T21:33:07.863Z,3.50
2019-04-10T21:35:38.246Z,3.40
2019-04-10T21:38:08.174Z,3.50
2019-04-10T21:40:38.804Z,3.40
2019-04-10T21:43:08.820Z,3.30
2019-04-10T21:45:39.158Z,3.20
2019-04-10T21:48:09.193Z,3.20
2019-04-10T21:50:39.792Z,3.00
2019-04-10T21:53:10.163Z,3.00
2019-04-10T21:55:39.909Z,2.70
2019-04-10T21:58:10.214Z,2.70
2019-04-10T22:00:59.052Z,2.50
2019-04-10T22:03:29.598Z,2.40
2019-04-10T22:06:30.372Z,2.40
2019-04-10T22:09:28.603Z,2.30
2019-04-10T22:12:01.493Z,2.20
2019-04-10T22:14:31.238Z,2.10
2019-04-10T22:17:00.915Z,2.10
2019-04-10T22:19:30.614Z,2.10
2019-04-10T22:22:00.479Z,2.00
2019-04-10T22:24:30.397Z,2.00
2019-04-10T22:27:00.873Z,2.00
2019-04-10T22:29:30.616Z,1.90
2019-04-10T22:32:00.602Z,2.00
2019-04-10T22:34:30.335Z,2.10
2019-04-10T22:37:00.224Z,2.00
2019-04-10T22:39:30.121Z,1.90
2019-04-10T22:41:59.783Z,1.90
2019-04-10T22:44:37.525Z,1.90
2019-04-10T22:47:00.945Z,1.80
2019-04-10T22:49:31.126Z,1.70
2019-04-10T22:52:00.905Z,1.60
2019-04-10T22:54:30.695Z,1.50
2019-04-10T22:57:00.661Z,1.50
2019-04-10T22:59:30.560Z,1.40
2019-04-10T23:02:07.209Z,1.40
2019-04-10T23:04:32.805Z,1.40
2019-04-10T23:07:03.846Z,1.40
2019-04-10T23:09:33.740Z,1.40
2019-04-10T23:12:03.873Z,1.40
2019-04-10T23:14:34.440Z,1.40
2019-04-10T23:17:04.285Z,1.40
2019-04-10T23:19:34.225Z,1.40
2019-04-10T23:22:05.394Z,1.30
2019-04-10T23:24:35.917Z,1.40
2019-04-10T23:27:05.950Z,1.30
2019-04-10T23:29:36.230Z,1.30
2019-04-10T23:32:05.905Z,1.20
2019-04-10T23:34:36.706Z,1.20
2019-04-10T23:37:06.807Z,1.20
2019-04-10T23:39:36.773Z,1.20
2019-04-10T23:42:07.491Z,1.20
2019-04-10T23:44:37.491Z,1.20
2019-04-10T23:47:07.531Z,1.20
2019-04-10T23:49:37.466Z,1.10
2019-04-10T23:52:07.635Z,1.00
2019-04-10T23:54:37.550Z,0.90
2019-04-10T23:57:07.395Z,1.00
2019-04-10T23:59:37.495Z,0.90
